createdAt,value
2018-07-07T00:11:12.967Z,21.9
2018-07-07T00:28:01.899Z,21.9
2018-07-07T00:44:50.849Z,21.9
2018-07-07T01:01:39.614Z,21.6
2018-07-07T01:18:28.330Z,21.6
2018-07-07T01:35:17.235Z,21.9
2018-07-07T01:52:06.116Z,21.6
2018-07-07T02:08:55.103Z,21.6
2018-07-07T02:25:43.592Z,21.6
2018-07-07T02:42:32.219Z,21.6
2018-07-07T02:59:20.773Z,21.6
2018-07-07T03:16:09.388Z,21.6
2018-07-07T03:32:57.969Z,21.3
2018-07-07T03:49:46.640Z,21.3
2018-07-07T04:06:35.059Z,21.3
2018-07-07T04:23:23.416Z,21.3
2018-07-07T04:40:11.627Z,21.3
2018-07-07T04:57:00.000Z,21.0
2018-07-07T05:13:48.475Z,21.3
2018-07-07T05:30:36.753Z,21.0
2018-07-07T05:47:24.820Z,21.0
2018-07-07T06:02:31.680Z,20.3
2018-07-07T06:09:14.474Z,19.7
2018-07-07T06:22:39.344Z,19.0
2018-07-07T06:34:23.421Z,19.7
2018-07-07T06:39:26.519Z,20.3
2018-07-07T06:52:51.262Z,21.0
2018-07-07T07:09:39.158Z,21.3
2018-07-07T07:14:42.071Z,21.9
2018-07-07T07:24:47.186Z,21.3
2018-07-07T07:41:35.332Z,21.3
2018-07-07T07:49:59.635Z,21.9
2018-07-07T08:00:05.279Z,22.6
2018-07-07T08:16:55.044Z,22.6
2018-07-07T08:33:45.184Z,22.9
2018-07-07T08:50:35.286Z,22.9
2018-07-07T09:07:25.322Z,23.2
2018-07-07T09:24:16.201Z,23.5
2018-07-07T09:41:07.003Z,23.2
2018-07-07T09:57:57.836Z,23.2
2018-07-07T10:14:48.853Z,23.8
2018-07-07T10:31:40.226Z,23.8
2018-07-07T10:48:31.596Z,23.8
2018-07-07T11:05:23.036Z,23.8
2018-07-07T11:22:14.723Z,24.2
2018-07-07T11:39:06.550Z,24.2
2018-07-07T11:55:58.506Z,24.5
2018-07-07T12:12:50.837Z,24.8
2018-07-07T12:29:43.308Z,24.8
2018-07-07T12:46:35.873Z,24.8
2018-07-07T13:03:28.665Z,25.1
2018-07-07T13:20:21.595Z,25.1
2018-07-07T13:37:14.380Z,25.1
2018-07-07T13:54:07.369Z,25.4
2018-07-07T14:11:00.432Z,25.4
2018-07-07T14:27:53.655Z,25.4
2018-07-07T14:44:46.830Z,25.4
2018-07-07T15:01:40.124Z,25.4
2018-07-07T15:18:33.395Z,25.4
2018-07-07T15:35:26.836Z,25.4
2018-07-07T15:52:20.325Z,25.4
2018-07-07T16:09:13.628Z,25.4
2018-07-07T16:26:07.290Z,25.4
2018-07-07T16:43:00.256Z,25.4
2018-07-07T16:59:53.321Z,25.4
2018-07-07T17:16:46.458Z,25.4
2018-07-07T17:33:39.641Z,25.1
2018-07-07T17:50:32.670Z,25.1
2018-07-07T18:07:25.290Z,24.8
2018-07-07T18:19:13.951Z,24.2
2018-07-07T18:36:05.713Z,23.8
2018-07-07T18:52:57.340Z,23.5
2018-07-07T19:09:48.768Z,23.5
2018-07-07T19:20:00.498Z,22.9
2018-07-07T19:36:45.843Z,22.6
2018-07-07T19:53:35.803Z,22.6
2018-07-07T20:08:44.717Z,21.9
2018-07-07T20:25:34.143Z,21.9
2018-07-07T20:42:23.219Z,21.6
2018-07-07T20:59:12.629Z,21.0
2018-07-07T21:16:00.625Z,21.0
2018-07-07T21:32:49.041Z,20.6
2018-07-07T21:49:36.625Z,20.6
2018-07-07T22:06:23.883Z,21.0
2018-07-07T22:23:11.323Z,20.6
2018-07-07T22:39:58.981Z,21.0
2018-07-07T22:56:46.692Z,21.0
2018-07-07T23:13:34.564Z,21.3
2018-07-07T23:30:22.652Z,21.3
2018-07-07T23:47:10.236Z,21.0
